Time;durP1;ratioP1;P1;durP2;ratioP2;P2;SDS_P1;SDS_P2;PMS_P1;PMS_P2;Temp;Humidity;BMP_temperature;BMP_pressure;BME280_temperature;BME280_humidity;BME280_pressure;Samples;Min_cycle;Max_cycle;Signal;HPM_P1;HPM_P2
2021/12/05 00:22:04;;;;;;;;;;;19.80;49.40;;;;;;4943407;28;19917;-77
2021/12/05 00:24:32;;;;;;;;;;;19.80;49.40;;;;;;4943738;28;19914;-77
2021/12/05 00:27:03;;;;;;;;;;;19.80;49.40;;;;;;4959139;28;19964;-77
2021/12/05 00:29:49;;;;;;;;;;;19.80;49.40;;;;;;4956465;28;20294;-77
2021/12/05 00:32:20;;;;;;;;;;;19.80;49.40;;;;;;4956467;28;19923;-77
2021/12/05 00:40:20;;;;;;;;;;;19.80;49.40;;;;;;4939959;28;20450;-78
2021/12/05 00:43:20;;;;;;;;;;;19.70;49.30;;;;;;4956645;28;19952;-78
2021/12/05 00:50:58;;;;;;;;;;;19.70;49.20;;;;;;4940475;28;19941;-77
2021/12/05 00:54:16;;;;;;;;;;;19.70;49.20;;;;;;4956099;28;19965;-77
2021/12/05 00:56:50;;;;;;;;;;;19.80;49.30;;;;;;4955982;28;20334;-77
2021/12/05 01:10:27;;;;;;;;;;;19.70;49.30;;;;;;4956378;28;20004;-78
2021/12/05 01:15:28;;;;;;;;;;;19.70;49.20;;;;;;4956364;28;19910;-77
2021/12/05 01:18:01;;;;;;;;;;;19.70;49.20;;;;;;4956731;28;19917;-77
2021/12/05 01:20:31;;;;;;;;;;;19.70;49.20;;;;;;4956174;28;20017;-77
2021/12/05 01:23:06;;;;;;;;;;;19.70;49.80;;;;;;4956146;28;19918;-77
2021/12/05 01:28:20;;;;;;;;;;;19.70;49.10;;;;;;4940229;28;20366;-77
2021/12/05 01:30:54;;;;;;;;;;;19.70;49.10;;;;;;4956192;28;19917;-77
2021/12/05 01:33:39;;;;;;;;;;;19.80;49.20;;;;;;4939569;28;19918;-77
2021/12/05 01:36:15;;;;;;;;;;;19.80;49.20;;;;;;4973349;28;20005;-77
2021/12/05 01:42:03;;;;;;;;;;;19.70;49.10;;;;;;4940201;28;20279;-77
2021/12/05 01:44:46;;;;;;;;;;;19.70;49.20;;;;;;4955864;28;19953;-77
2021/12/05 01:58:21;;;;;;;;;;;19.70;49.20;;;;;;4955769;28;19921;-78
2021/12/05 02:12:06;;;;;;;;;;;19.70;49.20;;;;;;4955500;28;19921;-78
2021/12/05 02:33:51;;;;;;;;;;;19.70;49.20;;;;;;4958375;28;19914;-75
2021/12/05 02:36:44;;;;;;;;;;;19.70;49.20;;;;;;4926738;28;19910;-76
2021/12/05 02:39:23;;;;;;;;;;;19.70;49.20;;;;;;4975714;28;19918;-75
2021/12/05 02:41:50;;;;;;;;;;;19.70;49.20;;;;;;4958403;28;19910;-77
2021/12/05 02:44:21;;;;;;;;;;;19.70;49.20;;;;;;4958005;28;20465;-77
2021/12/05 02:46:59;;;;;;;;;;;19.70;49.20;;;;;;4958133;28;19997;-75
2021/12/05 02:49:25;;;;;;;;;;;19.70;49.20;;;;;;4942639;28;19961;-76
2021/12/05 02:51:56;;;;;;;;;;;19.70;49.20;;;;;;4942015;28;20379;-76
2021/12/05 02:54:25;;;;;;;;;;;19.70;49.10;;;;;;4957875;28;19921;-76
2021/12/05 02:56:52;;;;;;;;;;;19.70;49.10;;;;;;4942621;28;19910;-77
2021/12/05 02:59:42;;;;;;;;;;;19.70;49.10;;;;;;4957869;28;19910;-78
2021/12/05 03:02:15;;;;;;;;;;;19.70;49.20;;;;;;4957922;28;19910;-77
2021/12/05 03:04:47;;;;;;;;;;;19.70;49.10;;;;;;4957686;28;19910;-78
2021/12/05 03:07:20;;;;;;;;;;;19.70;49.00;;;;;;4957968;28;19917;-77
2021/12/05 03:09:46;;;;;;;;;;;19.70;49.20;;;;;;4958046;28;20386;-78
2021/12/05 03:12:17;;;;;;;;;;;19.70;49.10;;;;;;4943078;28;20269;-78
2021/12/05 03:14:43;;;;;;;;;;;19.70;49.20;;;;;;4957410;28;19969;-78
2021/12/05 03:17:10;;;;;;;;;;;19.70;49.20;;;;;;4942140;28;20009;-77
2021/12/05 03:19:36;;;;;;;;;;;19.70;49.20;;;;;;4957924;28;20013;-78
2021/12/05 03:22:02;;;;;;;;;;;19.70;49.20;;;;;;4941924;28;19910;-77
2021/12/05 03:24:29;;;;;;;;;;;19.70;49.20;;;;;;4957200;28;20000;-78
2021/12/05 03:26:56;;;;;;;;;;;19.70;49.20;;;;;;4957683;28;20354;-77
2021/12/05 03:29:23;;;;;;;;;;;19.70;49.10;;;;;;4957035;28;20383;-78
2021/12/05 03:31:49;;;;;;;;;;;19.70;49.20;;;;;;4957120;28;19914;-78
2021/12/05 03:34:19;;;;;;;;;;;19.70;49.20;;;;;;4957280;28;20125;-78
2021/12/05 03:36:48;;;;;;;;;;;19.70;49.20;;;;;;4957399;28;20318;-78
2021/12/05 03:39:15;;;;;;;;;;;19.70;49.20;;;;;;4974780;28;19917;-78
2021/12/05 03:41:41;;;;;;;;;;;19.70;49.30;;;;;;4974521;28;19910;-78
2021/12/05 03:44:09;;;;;;;;;;;19.70;49.30;;;;;;4957197;28;19913;-77
2021/12/05 03:46:34;;;;;;;;;;;19.70;49.20;;;;;;4974125;28;20001;-76
2021/12/05 03:49:03;;;;;;;;;;;19.60;49.20;;;;;;4941700;28;19945;-78
2021/12/05 03:51:33;;;;;;;;;;;19.70;49.30;;;;;;4957101;28;20353;-78
2021/12/05 03:54:01;;;;;;;;;;;19.70;49.30;;;;;;4974589;28;19910;-78
2021/12/05 03:56:29;;;;;;;;;;;19.70;49.20;;;;;;4956706;28;20378;-77
2021/12/05 03:58:55;;;;;;;;;;;19.70;49.20;;;;;;4956969;28;19976;-77
2021/12/05 04:01:24;;;;;;;;;;;19.70;49.20;;;;;;4957223;28;19914;-77
2021/12/05 04:03:51;;;;;;;;;;;19.70;49.20;;;;;;4957203;28;19917;-77
2021/12/05 04:06:19;;;;;;;;;;;19.70;49.20;;;;;;4956967;28;20260;-77
2021/12/05 04:08:46;;;;;;;;;;;19.70;49.20;;;;;;4957014;28;20335;-77
2021/12/05 04:11:15;;;;;;;;;;;19.70;49.20;;;;;;4957015;28;19931;-77
2021/12/05 04:13:42;;;;;;;;;;;19.60;49.20;;;;;;4956611;28;19918;-77
2021/12/05 04:16:09;;;;;;;;;;;19.60;49.20;;;;;;4956485;28;19917;-77
2021/12/05 04:18:35;;;;;;;;;;;19.60;49.20;;;;;;4941163;28;19963;-77
2021/12/05 04:21:02;;;;;;;;;;;19.60;49.20;;;;;;4941076;28;19910;-77
2021/12/05 04:23:27;;;;;;;;;;;19.60;49.20;;;;;;4956503;28;19932;-77
2021/12/05 04:25:53;;;;;;;;;;;19.60;49.20;;;;;;4956251;28;20366;-77
2021/12/05 04:28:21;;;;;;;;;;;19.60;49.20;;;;;;4956580;28;19957;-77
2021/12/05 04:30:48;;;;;;;;;;;19.70;49.20;;;;;;4940811;28;20239;-77
2021/12/05 04:33:14;;;;;;;;;;;19.70;49.20;;;;;;4956278;28;19918;-78
2021/12/05 04:35:42;;;;;;;;;;;19.70;49.20;;;;;;4955480;28;19945;-77
2021/12/05 04:38:08;;;;;;;;;;;19.70;49.20;;;;;;4956848;28;19910;-77
2021/12/05 04:40:33;;;;;;;;;;;19.70;49.20;;;;;;4972848;28;20376;-77
2021/12/05 04:43:02;;;;;;;;;;;19.70;49.20;;;;;;4956394;28;19914;-77
2021/12/05 04:45:30;;;;;;;;;;;19.70;49.10;;;;;;4955828;28;19910;-77
2021/12/05 04:48:00;;;;;;;;;;;19.70;49.20;;;;;;4973463;28;19910;-77
2021/12/05 04:50:28;;;;;;;;;;;19.70;49.20;;;;;;4940506;28;20018;-77
2021/12/05 04:52:55;;;;;;;;;;;19.70;49.20;;;;;;4973246;28;20454;-77
2021/12/05 04:55:21;;;;;;;;;;;19.70;49.20;;;;;;4939671;28;20300;-77
2021/12/05 04:57:48;;;;;;;;;;;19.70;49.10;;;;;;4973879;28;19910;-76
2021/12/05 05:00:19;;;;;;;;;;;19.70;49.20;;;;;;4956364;28;19960;-76
2021/12/05 05:02:45;;;;;;;;;;;19.60;49.10;;;;;;4973209;28;20013;-76
2021/12/05 05:05:11;;;;;;;;;;;19.60;49.20;;;;;;4973446;28;20441;-76
2021/12/05 05:07:39;;;;;;;;;;;19.60;49.20;;;;;;4973275;28;19910;-76
2021/12/05 05:10:08;;;;;;;;;;;19.60;49.20;;;;;;4973529;28;19953;-76
2021/12/05 05:12:34;;;;;;;;;;;19.60;49.20;;;;;;4973013;28;19937;-76
2021/12/05 05:14:59;;;;;;;;;;;19.60;49.20;;;;;;4973213;28;19914;-76
2021/12/05 05:17:25;;;;;;;;;;;19.60;49.20;;;;;;4973770;28;20001;-76
2021/12/05 05:19:56;;;;;;;;;;;19.60;49.20;;;;;;4973808;28;19944;-76
2021/12/05 05:22:32;;;;;;;;;;;19.60;49.20;;;;;;4973624;28;19910;-77
2021/12/05 05:27:59;;;;;;;;;;;19.60;49.20;;;;;;4973364;28;19961;-76
2021/12/05 05:42:06;;;;;;;;;;;19.60;49.10;;;;;;4973260;28;19916;-77
2021/12/05 05:47:13;;;;;;;;;;;19.60;49.20;;;;;;4974419;28;20318;-77
2021/12/05 05:52:11;;;;;;;;;;;19.60;49.20;;;;;;4974707;28;19914;-77
2021/12/05 05:54:37;;;;;;;;;;;19.60;49.20;;;;;;4976145;28;19980;-77
2021/12/05 05:57:15;;;;;;;;;;;19.60;49.30;;;;;;4976081;28;20378;-77
2021/12/05 05:59:52;;;;;;;;;;;19.60;49.20;;;;;;4958959;28;19910;-77
2021/12/05 06:05:02;;;;;;;;;;;19.60;49.10;;;;;;4976076;28;19913;-76
2021/12/05 06:07:29;;;;;;;;;;;19.60;49.20;;;;;;4976223;28;20199;-76
2021/12/05 06:09:54;;;;;;;;;;;19.60;49.10;;;;;;4976262;28;19917;-76
2021/12/05 06:12:20;;;;;;;;;;;19.60;49.10;;;;;;4958368;28;19914;-76
2021/12/05 06:14:45;;;;;;;;;;;19.60;49.20;;;;;;4975978;28;19910;-76
2021/12/05 06:17:11;;;;;;;;;;;19.60;49.10;;;;;;4975923;28;19910;-76
2021/12/05 06:19:37;;;;;;;;;;;19.60;49.10;;;;;;4959081;28;20347;-76
2021/12/05 06:22:05;;;;;;;;;;;19.60;49.10;;;;;;4958456;28;19909;-76
2021/12/05 06:24:30;;;;;;;;;;;19.60;49.20;;;;;;4975643;28;20286;-76
2021/12/05 06:26:58;;;;;;;;;;;19.60;49.10;;;;;;4975744;28;19909;-76
2021/12/05 06:29:26;;;;;;;;;;;19.60;49.20;;;;;;4975854;28;19913;-76
2021/12/05 06:36:49;;;;;;;;;;;19.60;49.20;;;;;;4975812;28;19914;-76
2021/12/05 06:37:44;;;;;;;;;;;19.60;49.20;;;;;;4975653;28;20272;-76
2021/12/05 06:48:03;;;;;;;;;;;19.60;49.20;;;;;;4975554;28;19918;-76
2021/12/05 06:50:29;;;;;;;;;;;19.60;49.20;;;;;;4975525;28;20482;-76
2021/12/05 06:52:54;;;;;;;;;;;19.60;49.10;;;;;;4975255;28;19918;-77
2021/12/05 06:55:20;;;;;;;;;;;19.60;49.10;;;;;;4975243;28;19914;-76
2021/12/05 06:57:46;;;;;;;;;;;19.60;49.10;;;;;;4975343;28;20342;-77
2021/12/05 07:00:17;;;;;;;;;;;19.60;49.20;;;;;;4958069;28;20294;-77
2021/12/05 07:02:43;;;;;;;;;;;19.60;49.20;;;;;;4956945;28;19913;-78
2021/12/05 07:07:53;;;;;;;;;;;19.60;49.20;;;;;;4994521;28;19913;-77
2021/12/05 07:10:20;;;;;;;;;;;19.60;49.10;;;;;;4995051;28;19935;-77
2021/12/05 07:16:13;;;;;;;;;;;19.70;49.20;;;;;;4965994;28;19910;-76
2021/12/05 07:18:55;;;;;;;;;;;19.60;49.10;;;;;;4955667;29;20364;-76
2021/12/05 07:21:45;;;;;;;;;;;19.60;49.10;;;;;;4938786;29;20001;-76
2021/12/05 07:24:20;;;;;;;;;;;19.60;49.10;;;;;;4955495;29;19914;-78
2021/12/05 07:27:10;;;;;;;;;;;19.70;49.00;;;;;;4938597;29;19910;-76
2021/12/05 07:40:45;;;;;;;;;;;19.70;49.00;;;;;;4955483;29;19910;-78
2021/12/05 07:43:15;;;;;;;;;;;19.70;49.10;;;;;;4938172;29;19910;-77
2021/12/05 07:45:51;;;;;;;;;;;19.70;49.10;;;;;;4954032;29;19957;-78
2021/12/05 07:48:24;;;;;;;;;;;19.70;49.10;;;;;;4955502;29;19914;-76
2021/12/05 07:51:07;;;;;;;;;;;19.60;49.10;;;;;;4955385;29;19917;-77
2021/12/05 07:53:54;;;;;;;;;;;19.60;49.10;;;;;;4954479;29;19914;-77
2021/12/05 07:59:23;;;;;;;;;;;19.60;49.10;;;;;;4932201;29;20426;-77
2021/12/05 08:16:30;;;;;;;;;;;19.60;49.00;;;;;;4953554;29;19968;-78
2021/12/05 08:18:56;;;;;;;;;;;19.70;49.10;;;;;;4953273;28;19914;-78
2021/12/05 08:21:32;;;;;;;;;;;19.60;49.10;;;;;;4954452;28;20307;-78
2021/12/05 08:23:58;;;;;;;;;;;19.60;49.10;;;;;;4954491;29;19921;-79
2021/12/05 08:26:30;;;;;;;;;;;19.70;49.20;;;;;;4953187;28;19911;-79
2021/12/05 08:31:57;;;;;;;;;;;19.60;49.10;;;;;;4954543;29;19911;-78
2021/12/05 08:34:43;;;;;;;;;;;19.60;49.00;;;;;;4954426;29;19965;-77
2021/12/05 08:37:57;;;;;;;;;;;19.60;49.00;;;;;;4953193;29;19917;-77
2021/12/05 09:51:21;;;;;;;;;;;19.70;49.10;;;;;;4957248;29;19917;-78
2021/12/05 10:12:38;;;;;;;;;;;19.60;49.10;;;;;;4956576;28;19973;-77
2021/12/05 10:15:16;;;;;;;;;;;19.60;49.20;;;;;;4956313;29;20335;-78
2021/12/05 10:18:19;;;;;;;;;;;19.60;49.00;;;;;;4957271;29;19910;-78
2021/12/05 10:26:31;;;;;;;;;;;19.60;49.00;;;;;;4956299;28;19969;-78
2021/12/05 10:37:23;;;;;;;;;;;19.70;49.10;;;;;;4939460;28;20358;-78
2021/12/05 10:40:04;;;;;;;;;;;19.70;49.10;;;;;;4955990;29;19910;-78
2021/12/05 10:42:43;;;;;;;;;;;19.70;49.10;;;;;;4956356;29;20330;-78
2021/12/05 10:45:10;;;;;;;;;;;19.70;49.10;;;;;;4956050;29;19910;-78
2021/12/05 10:47:38;;;;;;;;;;;19.70;49.10;;;;;;4955428;29;19914;-78
2021/12/05 10:50:22;;;;;;;;;;;19.70;49.10;;;;;;4955000;28;19910;-78
2021/12/05 10:53:08;;;;;;;;;;;19.70;49.10;;;;;;4939144;29;19962;-77
2021/12/05 10:55:34;;;;;;;;;;;19.70;49.00;;;;;;4955704;29;19910;-77
2021/12/05 10:58:03;;;;;;;;;;;19.70;49.10;;;;;;4956262;29;20073;-77
2021/12/05 11:00:28;;;;;;;;;;;19.60;49.10;;;;;;4956449;28;19925;-77
2021/12/05 11:03:10;;;;;;;;;;;19.70;49.20;;;;;;4938409;29;20361;-78
2021/12/05 11:05:37;;;;;;;;;;;19.70;49.30;;;;;;4955886;29;19965;-77
2021/12/05 11:08:03;;;;;;;;;;;19.70;49.30;;;;;;4956099;28;19922;-78
2021/12/05 11:10:40;;;;;;;;;;;19.60;49.10;;;;;;4938828;29;19914;-77
2021/12/05 11:13:25;;;;;;;;;;;19.60;49.20;;;;;;4955674;29;19914;-77
2021/12/05 11:15:51;;;;;;;;;;;19.70;49.20;;;;;;4938226;29;20479;-77
2021/12/05 11:18:36;;;;;;;;;;;19.60;49.20;;;;;;4955750;29;19957;-77
2021/12/05 11:21:31;;;;;;;;;;;19.70;49.20;;;;;;4954685;28;20386;-78
2021/12/05 11:24:10;;;;;;;;;;;19.70;49.10;;;;;;4955787;29;20442;-77
2021/12/05 11:26:35;;;;;;;;;;;19.70;49.10;;;;;;4955285;29;19910;-77
2021/12/05 11:29:01;;;;;;;;;;;19.70;49.00;;;;;;4938219;29;19966;-77
2021/12/05 11:31:28;;;;;;;;;;;19.70;49.20;;;;;;4955882;28;19962;-77
2021/12/05 11:33:56;;;;;;;;;;;19.70;49.20;;;;;;4956028;29;19911;-77
2021/12/05 11:36:30;;;;;;;;;;;19.70;49.10;;;;;;4955581;29;19910;-78
2021/12/05 11:38:56;;;;;;;;;;;19.70;49.00;;;;;;4955732;29;19911;-77
2021/12/05 11:41:23;;;;;;;;;;;19.70;49.20;;;;;;4938639;29;19956;-77
2021/12/05 11:43:51;;;;;;;;;;;19.70;49.10;;;;;;4938692;29;20379;-77
2021/12/05 11:46:25;;;;;;;;;;;19.70;49.10;;;;;;4954402;28;19911;-77
2021/12/05 11:49:00;;;;;;;;;;;19.70;49.10;;;;;;4938856;28;20033;-77
2021/12/05 11:51:32;;;;;;;;;;;19.70;49.20;;;;;;4955985;29;19918;-78
2021/12/05 11:53:59;;;;;;;;;;;19.70;49.20;;;;;;4939276;29;20355;-78
2021/12/05 11:56:29;;;;;;;;;;;19.70;49.10;;;;;;4954488;28;19923;-77
2021/12/05 11:59:21;;;;;;;;;;;19.70;49.00;;;;;;4955390;29;19914;-78
2021/12/05 12:01:49;;;;;;;;;;;19.70;49.10;;;;;;4952397;29;19977;-78
2021/12/05 12:04:16;;;;;;;;;;;19.70;49.00;;;;;;4955289;28;19949;-78
2021/12/05 12:06:42;;;;;;;;;;;19.70;49.00;;;;;;4937788;29;20033;-78
2021/12/05 12:09:08;;;;;;;;;;;19.70;49.00;;;;;;4955333;29;19933;-78
2021/12/05 12:11:34;;;;;;;;;;;19.70;49.00;;;;;;4955057;29;19981;-77
2021/12/05 12:14:00;;;;;;;;;;;19.70;49.10;;;;;;4970662;23;19977;-82
2021/12/05 12:16:27;;;;;;;;;;;19.70;49.00;;;;;;4981124;28;19918;-82
2021/12/05 12:18:52;;;;;;;;;;;19.70;49.10;;;;;;4957405;28;19918;-82
2021/12/05 12:21:21;;;;;;;;;;;19.70;49.00;;;;;;4974123;28;19910;-82
2021/12/05 12:23:48;;;;;;;;;;;19.70;49.20;;;;;;4974678;28;20009;-81
2021/12/05 12:26:14;;;;;;;;;;;19.70;49.20;;;;;;4974239;28;19969;-82
2021/12/05 12:28:40;;;;;;;;;;;19.70;49.00;;;;;;4973693;28;19956;-82
2021/12/05 12:31:12;;;;;;;;;;;19.70;49.20;;;;;;4956980;28;19922;-82
2021/12/05 12:33:58;;;;;;;;;;;19.70;49.20;;;;;;4974055;28;20048;-82
2021/12/05 12:36:32;;;;;;;;;;;19.70;49.70;;;;;;4974278;28;20259;-81
2021/12/05 12:39:03;;;;;;;;;;;19.70;49.20;;;;;;4956993;28;19909;-81
2021/12/05 12:41:29;;;;;;;;;;;19.70;49.20;;;;;;4974090;28;19945;-82
2021/12/05 12:44:02;;;;;;;;;;;19.70;49.20;;;;;;4974269;28;20278;-82
2021/12/05 12:46:31;;;;;;;;;;;19.70;49.10;;;;;;4956565;28;20322;-82
2021/12/05 12:49:20;;;;;;;;;;;19.70;49.20;;;;;;4941463;28;20329;-82
2021/12/05 12:51:45;;;;;;;;;;;19.70;49.00;;;;;;4973287;28;20355;-82
2021/12/05 12:54:17;;;;;;;;;;;19.70;49.00;;;;;;4973411;28;19930;-83
2021/12/05 12:56:59;;;;;;;;;;;19.70;49.00;;;;;;4956068;28;19941;-83
2021/12/05 12:59:28;;;;;;;;;;;19.70;48.90;;;;;;4973500;28;19952;-83
2021/12/05 13:05:03;;;;;;;;;;;19.70;49.00;;;;;;4920323;28;20117;-83
2021/12/05 13:10:30;;;;;;;;;;;19.70;48.90;;;;;;4973238;28;19910;-82
2021/12/05 13:12:58;;;;;;;;;;;19.70;49.10;;;;;;4973226;28;19953;-83
2021/12/05 13:15:24;;;;;;;;;;;19.70;49.00;;;;;;4955710;28;19930;-83
2021/12/05 13:17:52;;;;;;;;;;;19.70;49.10;;;;;;4956121;28;19918;-82
2021/12/05 13:20:24;;;;;;;;;;;19.70;49.10;;;;;;4973521;28;19916;-82
2021/12/05 13:23:10;;;;;;;;;;;19.70;49.00;;;;;;4973069;28;19921;-82
2021/12/05 13:25:56;;;;;;;;;;;19.70;49.10;;;;;;4939938;28;20012;-82
2021/12/05 13:28:27;;;;;;;;;;;19.70;49.10;;;;;;4945372;28;20188;-82
2021/12/05 13:30:53;;;;;;;;;;;19.70;49.00;;;;;;4940415;28;20011;-82
2021/12/05 13:33:19;;;;;;;;;;;19.70;48.90;;;;;;4955534;28;19925;-81
2021/12/05 13:35:45;;;;;;;;;;;19.70;49.00;;;;;;4955754;28;19945;-82
2021/12/05 13:38:31;;;;;;;;;;;19.70;49.00;;;;;;4972922;28;20000;-81
2021/12/05 13:41:10;;;;;;;;;;;19.70;48.90;;;;;;4972957;28;19917;-81
2021/12/05 13:43:36;;;;;;;;;;;19.70;48.90;;;;;;4972994;28;20329;-82
2021/12/05 13:46:21;;;;;;;;;;;19.70;48.90;;;;;;4939655;28;19910;-82
2021/12/05 13:48:47;;;;;;;;;;;19.70;48.80;;;;;;4956046;28;19936;-82
2021/12/05 13:51:20;;;;;;;;;;;19.70;48.90;;;;;;4939864;28;20409;-82
2021/12/05 13:53:48;;;;;;;;;;;19.70;48.90;;;;;;4955493;28;19914;-81
2021/12/05 13:56:15;;;;;;;;;;;19.70;48.90;;;;;;4955066;28;20000;-81
2021/12/05 13:58:44;;;;;;;;;;;19.80;48.90;;;;;;4940028;28;20017;-81
2021/12/05 14:01:11;;;;;;;;;;;19.80;48.90;;;;;;4956130;28;19910;-81
2021/12/05 14:03:37;;;;;;;;;;;19.70;48.90;;;;;;4973914;28;20548;-81
2021/12/05 14:06:03;;;;;;;;;;;19.70;49.00;;;;;;4956588;28;19917;-81
2021/12/05 14:08:29;;;;;;;;;;;19.70;48.90;;;;;;4973674;28;19973;-81
2021/12/05 14:10:55;;;;;;;;;;;19.70;49.00;;;;;;4941525;28;20001;-82
2021/12/05 14:13:21;;;;;;;;;;;19.70;48.90;;;;;;4975615;28;20029;-81
2021/12/05 14:15:55;;;;;;;;;;;19.70;49.00;;;;;;4944315;28;19910;-81
2021/12/05 14:18:21;;;;;;;;;;;19.70;48.90;;;;;;4960055;28;19945;-82
2021/12/05 14:20:46;;;;;;;;;;;19.70;48.90;;;;;;4960153;28;19932;-82
2021/12/05 14:23:19;;;;;;;;;;;19.70;48.80;;;;;;4960708;28;19961;-80
2021/12/05 14:25:47;;;;;;;;;;;19.70;48.90;;;;;;4961483;28;19910;-80
2021/12/05 14:28:21;;;;;;;;;;;19.70;48.80;;;;;;4961446;28;19913;-80
2021/12/05 14:30:55;;;;;;;;;;;19.70;49.00;;;;;;4944599;28;19917;-81
2021/12/05 14:33:44;;;;;;;;;;;19.70;48.80;;;;;;4977893;28;19914;-80
2021/12/05 14:36:34;;;;;;;;;;;19.70;48.80;;;;;;4944009;28;19917;-81
2021/12/05 14:39:06;;;;;;;;;;;19.70;48.80;;;;;;4959333;28;19917;-80
2021/12/05 14:41:32;;;;;;;;;;;19.80;48.90;;;;;;4959484;28;19910;-80
2021/12/05 14:44:02;;;;;;;;;;;19.70;48.80;;;;;;4960011;28;20407;-80
2021/12/05 14:46:28;;;;;;;;;;;19.80;48.80;;;;;;4959165;28;19954;-81
2021/12/05 14:48:58;;;;;;;;;;;19.80;48.90;;;;;;4959486;28;20020;-81
2021/12/05 14:51:56;;;;;;;;;;;19.70;48.70;;;;;;4960513;28;20421;-81
2021/12/05 14:54:31;;;;;;;;;;;19.70;48.80;;;;;;4949094;28;20139;-80
2021/12/05 14:56:59;;;;;;;;;;;19.80;49.00;;;;;;4943950;28;19910;-81
2021/12/05 14:59:25;;;;;;;;;;;19.70;48.80;;;;;;4958481;28;19918;-81
2021/12/05 15:01:53;;;;;;;;;;;19.70;48.80;;;;;;4958094;28;19917;-81
2021/12/05 15:04:20;;;;;;;;;;;19.70;48.80;;;;;;4958222;28;19920;-81
2021/12/05 15:06:47;;;;;;;;;;;19.70;48.80;;;;;;4957669;28;20263;-81
2021/12/05 15:09:21;;;;;;;;;;;19.70;48.80;;;;;;4975366;28;20267;-81
2021/12/05 15:11:48;;;;;;;;;;;19.70;48.80;;;;;;4957948;28;19910;-81
2021/12/05 15:14:13;;;;;;;;;;;19.70;48.80;;;;;;4958018;28;19913;-81
2021/12/05 15:16:49;;;;;;;;;;;19.70;48.80;;;;;;4974686;28;20025;-81
2021/12/05 15:19:15;;;;;;;;;;;19.70;49.40;;;;;;4957750;28;19914;-80
2021/12/05 15:21:42;;;;;;;;;;;19.70;48.80;;;;;;4957674;28;19920;-80
2021/12/05 15:24:12;;;;;;;;;;;19.70;48.80;;;;;;4942076;28;19957;-80
2021/12/05 15:26:38;;;;;;;;;;;19.70;48.80;;;;;;4974722;28;19914;-81
2021/12/05 15:29:06;;;;;;;;;;;19.70;48.90;;;;;;4975183;28;20367;-81
2021/12/05 15:31:35;;;;;;;;;;;19.70;48.80;;;;;;4957741;28;20002;-81
2021/12/05 15:34:02;;;;;;;;;;;19.70;48.90;;;;;;4974947;28;19914;-81
2021/12/05 15:36:31;;;;;;;;;;;19.70;48.90;;;;;;4957324;28;20469;-80
2021/12/05 15:38:57;;;;;;;;;;;19.70;49.00;;;;;;4957857;28;19909;-80
2021/12/05 15:41:27;;;;;;;;;;;19.70;49.00;;;;;;4958334;28;19910;-79
2021/12/05 15:43:52;;;;;;;;;;;19.70;49.00;;;;;;4958352;28;19956;-80
2021/12/05 15:46:18;;;;;;;;;;;19.70;48.80;;;;;;4958000;28;19941;-80
2021/12/05 15:48:48;;;;;;;;;;;19.70;49.00;;;;;;4975505;28;19953;-79
2021/12/05 15:51:14;;;;;;;;;;;19.70;48.80;;;;;;4975225;28;20000;-79
2021/12/05 15:53:40;;;;;;;;;;;19.70;48.90;;;;;;4957985;28;20331;-79
2021/12/05 15:56:14;;;;;;;;;;;19.70;48.90;;;;;;4958177;28;20379;-80
2021/12/05 15:59:10;;;;;;;;;;;19.70;48.80;;;;;;4959034;28;19921;-80
2021/12/05 16:02:10;;;;;;;;;;;19.70;48.90;;;;;;4945597;28;19969;-81
2021/12/05 16:04:41;;;;;;;;;;;19.70;48.80;;;;;;4957485;28;19914;-79
2021/12/05 16:07:10;;;;;;;;;;;19.70;48.80;;;;;;4958326;28;19913;-80
2021/12/05 16:09:43;;;;;;;;;;;19.70;48.80;;;;;;4957655;28;19914;-80
2021/12/05 16:12:09;;;;;;;;;;;19.70;48.70;;;;;;4974588;28;19929;-82
2021/12/05 16:14:37;;;;;;;;;;;19.70;48.70;;;;;;4957313;28;20030;-79
2021/12/05 16:17:27;;;;;;;;;;;19.70;48.80;;;;;;4975324;28;19910;-80
2021/12/05 16:20:10;;;;;;;;;;;19.70;48.80;;;;;;4974787;28;19910;-81
2021/12/05 16:22:58;;;;;;;;;;;19.70;48.70;;;;;;4957377;28;19917;-81
2021/12/05 16:25:24;;;;;;;;;;;19.70;48.80;;;;;;4957413;28;20064;-81
2021/12/05 16:28:16;;;;;;;;;;;19.70;48.80;;;;;;4960187;28;19909;-80
2021/12/05 16:30:47;;;;;;;;;;;19.70;48.80;;;;;;4941921;28;19910;-79
2021/12/05 16:33:18;;;;;;;;;;;19.70;48.80;;;;;;4974849;28;20275;-80
2021/12/05 16:35:58;;;;;;;;;;;19.70;48.80;;;;;;4940886;28;19910;-80
2021/12/05 16:38:41;;;;;;;;;;;19.70;48.60;;;;;;4943186;28;19910;-80
2021/12/05 16:41:27;;;;;;;;;;;19.70;48.70;;;;;;4974604;28;19914;-80
2021/12/05 16:44:13;;;;;;;;;;;;;;;;;;;;;
2021/12/05 16:46:42;;;;;;;;;;;19.70;48.70;;;;;;4943548;28;19916;-80
2021/12/05 16:49:13;;;;;;;;;;;19.70;48.70;;;;;;4956736;28;20397;-81
2021/12/05 16:51:52;;;;;;;;;;;19.70;48.70;;;;;;4956714;28;20330;-81
2021/12/05 16:54:18;;;;;;;;;;;19.70;48.70;;;;;;4973731;28;20022;-80
2021/12/05 16:56:48;;;;;;;;;;;19.70;48.70;;;;;;4956213;28;19938;-80
2021/12/05 16:59:14;;;;;;;;;;;19.70;48.70;;;;;;4956468;28;19910;-81
2021/12/05 17:01:40;;;;;;;;;;;19.70;48.60;;;;;;4957124;28;20017;-81
2021/12/05 17:04:05;;;;;;;;;;;19.70;48.70;;;;;;4974772;28;19956;-82
2021/12/05 17:06:54;;;;;;;;;;;19.70;48.70;;;;;;4956998;28;20287;-81
2021/12/05 17:09:20;;;;;;;;;;;19.70;49.30;;;;;;4957527;28;19932;-80
2021/12/05 17:11:49;;;;;;;;;;;19.70;48.70;;;;;;4974555;28;19910;-81
2021/12/05 17:14:50;;;;;;;;;;;19.70;48.70;;;;;;4957037;28;20335;-80
2021/12/05 17:17:30;;;;;;;;;;;19.80;48.70;;;;;;4918915;29;19917;-81
2021/12/05 17:20:19;;;;;;;;;;;19.80;48.70;;;;;;4938314;28;19914;-81
2021/12/05 17:23:03;;;;;;;;;;;19.70;48.70;;;;;;4942354;28;19910;-81
2021/12/05 17:25:37;;;;;;;;;;;19.70;48.80;;;;;;4958075;28;19910;-81
2021/12/05 17:28:04;;;;;;;;;;;19.70;48.70;;;;;;4958330;28;19933;-80
2021/12/05 17:30:40;;;;;;;;;;;19.70;48.80;;;;;;4975021;28;19960;-80
2021/12/05 17:33:24;;;;;;;;;;;19.70;48.80;;;;;;4942200;28;19964;-81
2021/12/05 17:35:50;;;;;;;;;;;19.70;48.80;;;;;;4974623;28;19917;-80
2021/12/05 17:38:19;;;;;;;;;;;19.70;48.90;;;;;;4973932;28;19910;-82
2021/12/05 17:41:11;;;;;;;;;;;19.70;48.70;;;;;;4968097;28;20008;-82
2021/12/05 17:43:43;;;;;;;;;;;19.70;48.70;;;;;;4940911;28;19914;-80
2021/12/05 17:46:47;;;;;;;;;;;19.80;48.70;;;;;;4940094;28;19910;-81
2021/12/05 17:49:29;;;;;;;;;;;19.70;48.70;;;;;;4944551;28;19910;-80
2021/12/05 17:52:31;;;;;;;;;;;19.80;48.70;;;;;;4943040;28;19914;-80
2021/12/05 17:55:20;;;;;;;;;;;19.80;48.70;;;;;;4946506;28;19910;-80
2021/12/05 17:57:56;;;;;;;;;;;19.80;48.60;;;;;;4960450;28;19910;-80
2021/12/05 18:02:59;;;;;;;;;;;19.70;48.60;;;;;;4977325;28;20008;-79
2021/12/05 18:05:30;;;;;;;;;;;19.80;48.60;;;;;;4945511;28;19910;-79
2021/12/05 18:08:01;;;;;;;;;;;19.80;48.60;;;;;;4960492;28;19980;-79
2021/12/05 18:10:28;;;;;;;;;;;19.70;48.50;;;;;;4977461;28;19916;-80
2021/12/05 18:12:58;;;;;;;;;;;19.80;48.60;;;;;;4958371;23;20378;-77
2021/12/05 18:15:28;;;;;;;;;;;19.80;48.60;;;;;;4976054;28;19945;-77
2021/12/05 18:17:57;;;;;;;;;;;19.70;48.60;;;;;;4962429;28;20426;-77
2021/12/05 18:20:25;;;;;;;;;;;19.80;48.60;;;;;;4979147;28;19964;-77
2021/12/05 18:22:52;;;;;;;;;;;19.70;48.60;;;;;;4971344;28;19914;-77
2021/12/05 18:25:18;;;;;;;;;;;19.80;48.60;;;;;;4959409;28;19957;-77
2021/12/05 18:27:44;;;;;;;;;;;19.70;48.50;;;;;;4943696;28;19964;-77
2021/12/05 18:30:11;;;;;;;;;;;19.70;48.60;;;;;;4959583;28;20273;-77
2021/12/05 18:32:37;;;;;;;;;;;19.70;48.60;;;;;;4959437;28;19984;-77
2021/12/05 18:35:03;;;;;;;;;;;19.70;48.60;;;;;;4959101;28;19914;-77
2021/12/05 18:37:29;;;;;;;;;;;19.70;48.60;;;;;;4959252;28;19917;-78
2021/12/05 18:39:55;;;;;;;;;;;19.70;48.50;;;;;;4977713;28;19909;-77
2021/12/05 18:42:22;;;;;;;;;;;19.80;48.60;;;;;;4960363;28;19914;-78
2021/12/05 18:44:53;;;;;;;;;;;19.80;48.60;;;;;;4976792;28;19910;-77
2021/12/05 18:47:19;;;;;;;;;;;19.70;48.60;;;;;;4977344;28;19945;-78
2021/12/05 18:49:46;;;;;;;;;;;19.80;48.60;;;;;;4977181;28;19910;-78
2021/12/05 18:52:12;;;;;;;;;;;19.70;48.60;;;;;;4977018;28;19964;-78
2021/12/05 18:54:42;;;;;;;;;;;19.80;48.60;;;;;;4959670;28;19910;-77
2021/12/05 18:57:12;;;;;;;;;;;19.70;48.60;;;;;;4943872;28;20393;-77
2021/12/05 18:59:45;;;;;;;;;;;19.70;48.60;;;;;;4958886;28;19910;-77
2021/12/05 19:04:59;;;;;;;;;;;19.70;48.60;;;;;;4976590;28;19916;-77
2021/12/05 19:07:31;;;;;;;;;;;19.70;48.60;;;;;;4959095;28;20001;-77
2021/12/05 19:12:32;;;;;;;;;;;19.70;48.60;;;;;;4958359;28;19921;-77
2021/12/05 19:15:00;;;;;;;;;;;19.70;48.60;;;;;;4942392;28;20351;-77
2021/12/05 19:17:33;;;;;;;;;;;19.70;48.60;;;;;;4942710;28;20018;-77
2021/12/05 19:20:07;;;;;;;;;;;19.70;48.50;;;;;;4976123;28;19953;-77
2021/12/05 19:22:33;;;;;;;;;;;19.80;48.60;;;;;;4944034;28;20375;-77
2021/12/05 19:25:01;;;;;;;;;;;19.80;48.50;;;;;;4960372;28;20326;-77
2021/12/05 19:27:28;;;;;;;;;;;19.80;48.60;;;;;;4959513;28;19973;-77